Time;durP1;ratioP1;P1;durP2;ratioP2;P2;SDS_P1;SDS_P2;PMS_P1;PMS_P2;Temp;Humidity;BMP_temperature;BMP_pressure;BME280_temperature;BME280_humidity;BME280_pressure;Samples;Min_cycle;Max_cycle;Signal;HPM_P1;HPM_P2
2023/09/02 00:01:33;;;;;;;;;;;14.90;99.40;;;;;;5108657;28;20318;-66
2023/09/02 00:04:01;;;;;;;;;;;14.90;99.40;;;;;;5107297;28;19912;-66
2023/09/02 00:06:28;;;;;;;;;;;15.00;99.20;;;;;;5111645;28;20360;-68
2023/09/02 00:08:54;;;;;;;;;;;15.10;99.30;;;;;;5106792;28;19923;-66
2023/09/02 00:11:21;;;;;;;;;;;15.10;99.50;;;;;;5111092;28;19919;-67
2023/09/02 00:13:47;;;;;;;;;;;15.30;99.80;;;;;;5105773;28;19916;-67
2023/09/02 00:16:16;;;;;;;;;;;15.30;99.30;;;;;;5103858;28;19912;-67
2023/09/02 00:18:44;;;;;;;;;;;15.40;99.40;;;;;;5111786;28;19923;-66
2023/09/02 00:21:11;;;;;;;;;;;15.50;99.50;;;;;;5104160;28;19919;-67
2023/09/02 00:23:39;;;;;;;;;;;15.60;99.10;;;;;;5108951;28;20010;-66
2023/09/02 00:26:06;;;;;;;;;;;15.80;98.90;;;;;;5111977;28;19934;-65
2023/09/02 00:28:32;;;;;;;;;;;15.90;98.70;;;;;;5112900;28;19915;-66
2023/09/02 00:30:59;;;;;;;;;;;16.00;98.60;;;;;;5112118;28;19916;-66
2023/09/02 00:33:25;;;;;;;;;;;16.10;98.30;;;;;;5112667;28;19908;-66
2023/09/02 00:35:52;;;;;;;;;;;16.30;98.30;;;;;;5104360;28;20261;-67
2023/09/02 00:38:19;;;;;;;;;;;16.30;98.30;;;;;;5106709;28;19913;-67
2023/09/02 00:40:49;;;;;;;;;;;16.50;98.60;;;;;;5103406;28;19912;-67
2023/09/02 00:43:16;;;;;;;;;;;16.50;98.10;;;;;;5092548;28;19908;-65
2023/09/02 00:45:42;;;;;;;;;;;16.70;98.00;;;;;;5101965;28;19920;-67
2023/09/02 00:48:09;;;;;;;;;;;16.90;97.70;;;;;;5110625;28;19922;-66
2023/09/02 00:50:36;;;;;;;;;;;17.20;97.60;;;;;;5098806;28;19912;-67
2023/09/02 00:53:03;;;;;;;;;;;17.30;97.10;;;;;;5110210;28;19912;-65
2023/09/02 00:55:30;;;;;;;;;;;17.50;96.80;;;;;;5102252;28;19969;-66
2023/09/02 00:57:59;;;;;;;;;;;17.80;96.80;;;;;;5104971;28;19912;-67
2023/09/02 01:00:25;;;;;;;;;;;17.80;96.20;;;;;;5103654;28;19962;-66
2023/09/02 01:02:52;;;;;;;;;;;17.90;96.50;;;;;;5099302;28;19916;-65
2023/09/02 01:05:20;;;;;;;;;;;18.10;95.80;;;;;;5100522;28;19916;-68
2023/09/02 01:07:47;;;;;;;;;;;18.20;95.90;;;;;;5113297;28;19908;-66
2023/09/02 01:10:14;;;;;;;;;;;18.30;95.70;;;;;;5109819;28;19998;-67
2023/09/02 01:12:41;;;;;;;;;;;18.30;95.60;;;;;;5106884;28;19915;-67
2023/09/02 01:15:07;;;;;;;;;;;18.30;95.70;;;;;;5116338;28;19994;-66
2023/09/02 01:17:34;;;;;;;;;;;18.30;95.40;;;;;;5116760;28;19907;-67
2023/09/02 01:20:03;;;;;;;;;;;18.40;95.70;;;;;;5105958;28;19919;-67
2023/09/02 01:22:30;;;;;;;;;;;18.50;95.30;;;;;;5114404;28;19908;-66
2023/09/02 01:25:02;;;;;;;;;;;18.50;94.80;;;;;;5111584;28;20035;-66
2023/09/02 01:27:31;;;;;;;;;;;18.50;94.80;;;;;;5105111;28;19908;-66
2023/09/02 01:30:05;;;;;;;;;;;18.50;94.70;;;;;;5095983;28;19912;-65
2023/09/02 01:32:37;;;;;;;;;;;18.60;94.90;;;;;;5095027;28;19915;-66
2023/09/02 01:35:04;;;;;;;;;;;18.70;94.60;;;;;;5095974;28;20369;-65
2023/09/02 01:37:35;;;;;;;;;;;18.80;94.60;;;;;;5110620;28;20372;-66
2023/09/02 01:40:05;;;;;;;;;;;18.90;94.60;;;;;;5103656;28;19912;-67
2023/09/02 01:42:32;;;;;;;;;;;18.90;94.50;;;;;;5105152;28;19951;-66
2023/09/02 01:44:59;;;;;;;;;;;19.00;94.40;;;;;;5116013;28;19962;-66
2023/09/02 01:47:26;;;;;;;;;;;19.10;94.70;;;;;;5116257;28;19920;-68
2023/09/02 01:49:53;;;;;;;;;;;19.30;94.00;;;;;;5116459;28;19911;-68
2023/09/02 01:52:21;;;;;;;;;;;19.30;93.80;;;;;;5116410;28;20426;-66
2023/09/02 01:54:48;;;;;;;;;;;19.30;94.00;;;;;;5116639;28;19908;-66
2023/09/02 01:57:15;;;;;;;;;;;19.30;93.60;;;;;;5114164;28;20002;-65
2023/09/02 01:59:41;;;;;;;;;;;19.50;93.60;;;;;;5113878;28;19912;-65
2023/09/02 02:02:08;;;;;;;;;;;19.40;92.30;;;;;;5114037;28;19953;-67
2023/09/02 02:04:38;;;;;;;;;;;19.50;92.60;;;;;;5114245;28;19908;-66
2023/09/02 02:07:10;;;;;;;;;;;19.70;93.50;;;;;;5104850;28;19919;-67
2023/09/02 02:09:41;;;;;;;;;;;19.80;93.20;;;;;;5093775;28;19912;-67
2023/09/02 02:12:08;;;;;;;;;;;19.80;93.20;;;;;;5098729;28;19912;-67
2023/09/02 02:14:35;;;;;;;;;;;19.80;92.90;;;;;;5115609;28;19908;-66
2023/09/02 02:17:03;;;;;;;;;;;19.70;92.90;;;;;;5115384;28;19911;-66
2023/09/02 02:19:30;;;;;;;;;;;19.70;93.30;;;;;;5115118;28;20276;-68
2023/09/02 02:21:58;;;;;;;;;;;19.80;93.40;;;;;;5115778;28;19911;-67
2023/09/02 02:24:25;;;;;;;;;;;20.00;93.60;;;;;;5115941;28;19908;-67
2023/09/02 02:26:52;;;;;;;;;;;20.00;92.90;;;;;;5112080;28;19920;-66
2023/09/02 02:29:19;;;;;;;;;;;20.00;93.00;;;;;;5095024;28;19912;-67
2023/09/02 02:31:45;;;;;;;;;;;20.20;92.40;;;;;;5112913;28;19923;-66
2023/09/02 02:34:12;;;;;;;;;;;20.10;92.30;;;;;;5107820;28;20277;-67
2023/09/02 02:36:39;;;;;;;;;;;20.40;92.40;;;;;;5102297;28;19911;-66
2023/09/02 02:39:05;;;;;;;;;;;20.50;92.70;;;;;;5115688;28;20280;-66
2023/09/02 02:41:32;;;;;;;;;;;21.10;91.50;;;;;;5115397;28;20292;-67
2023/09/02 02:43:59;;;;;;;;;;;21.70;90.80;;;;;;5115246;28;19907;-67
2023/09/02 02:46:26;;;;;;;;;;;22.00;90.40;;;;;;5115237;28;20427;-65
2023/09/02 02:48:53;;;;;;;;;;;22.70;88.40;;;;;;5115488;28;19923;-66
2023/09/02 02:51:19;;;;;;;;;;;23.80;86.20;;;;;;5100569;28;19912;-66
2023/09/02 02:53:46;;;;;;;;;;;24.80;83.90;;;;;;5113246;28;19918;-67
2023/09/02 02:56:12;;;;;;;;;;;26.10;80.80;;;;;;5114743;28;19915;-66
2023/09/02 02:58:40;;;;;;;;;;;26.70;76.80;;;;;;5114915;28;19908;-67
2023/09/02 03:01:09;;;;;;;;;;;26.70;74.60;;;;;;5114057;28;20010;-65
2023/09/02 03:03:36;;;;;;;;;;;26.40;74.90;;;;;;5111647;28;19919;-67
2023/09/02 03:06:03;;;;;;;;;;;25.90;75.40;;;;;;5113248;28;20010;-67
2023/09/02 03:08:30;;;;;;;;;;;25.90;75.70;;;;;;5114777;28;19915;-67
2023/09/02 03:11:01;;;;;;;;;;;26.40;74.70;;;;;;5114632;28;19912;-66
2023/09/02 03:13:29;;;;;;;;;;;27.70;74.00;;;;;;5082769;28;19959;-66
2023/09/02 03:15:55;;;;;;;;;;;28.60;70.00;;;;;;5103197;28;20011;-67
2023/09/02 03:18:23;;;;;;;;;;;29.00;70.00;;;;;;5108371;28;20273;-67
2023/09/02 03:20:50;;;;;;;;;;;29.70;67.60;;;;;;5100670;28;20025;-66
2023/09/02 03:23:17;;;;;;;;;;;29.70;67.10;;;;;;5101468;28;19919;-70
2023/09/02 03:25:43;;;;;;;;;;;30.00;65.50;;;;;;5105685;28;19924;-67
2023/09/02 03:28:12;;;;;;;;;;;30.30;65.30;;;;;;5109413;28;19919;-67
2023/09/02 03:30:39;;;;;;;;;;;30.70;64.80;;;;;;5111724;28;19911;-66
2023/09/02 03:33:07;;;;;;;;;;;31.40;64.20;;;;;;5113650;28;19976;-66
2023/09/02 03:35:38;;;;;;;;;;;31.20;63.20;;;;;;5114389;28;19908;-65
2023/09/02 03:38:05;;;;;;;;;;;31.10;63.20;;;;;;5100866;28;19971;-68
2023/09/02 03:40:33;;;;;;;;;;;30.90;63.00;;;;;;5093693;28;19908;-66
2023/09/02 03:42:59;;;;;;;;;;;30.70;62.80;;;;;;5105334;28;20368;-66
2023/09/02 03:45:26;;;;;;;;;;;30.30;63.10;;;;;;5104525;28;20372;-66
2023/09/02 03:47:53;;;;;;;;;;;30.80;63.60;;;;;;5095098;28;19938;-68
2023/09/02 03:50:26;;;;;;;;;;;31.60;61.90;;;;;;5109235;28;19946;-67
2023/09/02 03:52:53;;;;;;;;;;;31.10;62.30;;;;;;5113732;28;20363;-68
2023/09/02 03:55:19;;;;;;;;;;;30.80;62.20;;;;;;5112374;28;19959;-67
2023/09/02 03:57:46;;;;;;;;;;;30.60;63.30;;;;;;5097778;28;19912;-68
2023/09/02 04:00:15;;;;;;;;;;;30.80;62.60;;;;;;5109942;28;20513;-67
2023/09/02 04:02:42;;;;;;;;;;;31.10;63.10;;;;;;5108092;28;19920;-68
2023/09/02 04:05:09;;;;;;;;;;;31.70;63.00;;;;;;5108232;28;19915;-67
2023/09/02 04:07:36;;;;;;;;;;;32.20;62.30;;;;;;5104140;28;19920;-67
2023/09/02 04:10:02;;;;;;;;;;;32.20;62.50;;;;;;5098763;28;20357;-68
2023/09/02 04:12:29;;;;;;;;;;;32.20;62.20;;;;;;5106123;28;19912;-66
2023/09/02 04:14:56;;;;;;;;;;;32.20;63.70;;;;;;5098709;28;19911;-67
2023/09/02 04:17:22;;;;;;;;;;;32.10;63.20;;;;;;5098791;28;20364;-67
2023/09/02 04:19:49;;;;;;;;;;;32.30;62.60;;;;;;5105929;28;19912;-67
2023/09/02 04:22:15;;;;;;;;;;;31.90;63.10;;;;;;5102095;28;19912;-67
2023/09/02 04:24:42;;;;;;;;;;;32.40;62.60;;;;;;5104305;28;19927;-66
2023/09/02 04:27:09;;;;;;;;;;;32.10;62.30;;;;;;5104069;28;19919;-69
2023/09/02 04:29:35;;;;;;;;;;;32.00;60.90;;;;;;5107161;27;19965;-67
2023/09/02 04:32:02;;;;;;;;;;;31.30;61.60;;;;;;5099921;28;19980;-71
2023/09/02 04:34:29;;;;;;;;;;;30.80;61.90;;;;;;5100047;28;20269;-70
2023/09/02 04:36:55;;;;;;;;;;;31.10;62.30;;;;;;5090727;28;19985;-67
2023/09/02 04:39:22;;;;;;;;;;;31.60;61.20;;;;;;5099141;28;20360;-68
2023/09/02 04:41:49;;;;;;;;;;;31.00;60.70;;;;;;5094901;28;19954;-67
2023/09/02 04:44:18;;;;;;;;;;;30.60;61.20;;;;;;5102654;28;19915;-70
2023/09/02 04:46:45;;;;;;;;;;;30.40;62.30;;;;;;5100593;28;19947;-69
2023/09/02 04:49:11;;;;;;;;;;;30.70;62.40;;;;;;5096721;28;19908;-68
2023/09/02 04:51:38;;;;;;;;;;;30.50;61.90;;;;;;5108740;28;19919;-68
2023/09/02 04:54:05;;;;;;;;;;;31.20;61.30;;;;;;5102678;28;19920;-68
2023/09/02 04:56:31;;;;;;;;;;;31.40;61.00;;;;;;5104625;28;19940;-68
2023/09/02 04:58:58;;;;;;;;;;;31.60;61.20;;;;;;5110263;28;20380;-67
2023/09/02 05:01:25;;;;;;;;;;;31.50;61.30;;;;;;5092466;28;19919;-68
2023/09/02 05:03:52;;;;;;;;;;;31.80;60.60;;;;;;5100680;28;19919;-67
2023/09/02 05:06:18;;;;;;;;;;;31.50;61.20;;;;;;5106034;28;19920;-68
2023/09/02 05:08:45;;;;;;;;;;;30.90;62.10;;;;;;5099055;28;20720;-67
2023/09/02 05:11:12;;;;;;;;;;;30.80;62.60;;;;;;5106373;28;19919;-67
2023/09/02 05:13:38;;;;;;;;;;;30.50;62.30;;;;;;5104806;28;19912;-66
2023/09/02 05:16:05;;;;;;;;;;;30.50;62.10;;;;;;5112009;28;19912;-69
2023/09/02 05:18:31;;;;;;;;;;;30.80;63.00;;;;;;5110101;28;20277;-69
2023/09/02 05:20:58;;;;;;;;;;;31.50;61.40;;;;;;5111633;28;19916;-68
2023/09/02 05:23:25;;;;;;;;;;;31.70;61.30;;;;;;5112151;28;20003;-67
2023/09/02 05:25:55;;;;;;;;;;;31.30;61.50;;;;;;5110570;28;19923;-67
2023/09/02 05:28:23;;;;;;;;;;;30.80;61.50;;;;;;5111382;28;19912;-68
2023/09/02 05:30:49;;;;;;;;;;;31.10;61.90;;;;;;5098786;28;20292;-68
2023/09/02 05:33:16;;;;;;;;;;;31.80;61.90;;;;;;5107679;28;20553;-69
2023/09/02 05:35:45;;;;;;;;;;;31.80;60.50;;;;;;5104949;28;19923;-68
2023/09/02 05:38:12;;;;;;;;;;;31.00;61.30;;;;;;5112582;28;19907;-70
2023/09/02 05:40:40;;;;;;;;;;;30.40;63.00;;;;;;5112368;28;19908;-67
2023/09/02 05:43:06;;;;;;;;;;;30.40;62.50;;;;;;5112745;28;19908;-67
2023/09/02 05:45:33;;;;;;;;;;;30.80;62.40;;;;;;5112457;28;19928;-68
2023/09/02 05:48:00;;;;;;;;;;;31.20;61.90;;;;;;5112426;28;19908;-69
2023/09/02 05:50:27;;;;;;;;;;;31.30;61.00;;;;;;5112715;28;19908;-68
2023/09/02 05:52:54;;;;;;;;;;;31.50;61.60;;;;;;5113159;28;19908;-68
2023/09/02 05:55:20;;;;;;;;;;;31.50;60.90;;;;;;5116561;28;19908;-67
2023/09/02 05:57:47;;;;;;;;;;;31.50;61.20;;;;;;5115400;28;20002;-70
2023/09/02 06:00:14;;;;;;;;;;;31.40;61.30;;;;;;5098057;28;19998;-66
2023/09/02 06:02:40;;;;;;;;;;;31.20;61.60;;;;;;5096018;28;20046;-68
2023/09/02 06:05:07;;;;;;;;;;;31.20;61.60;;;;;;5095875;28;20387;-68
2023/09/02 06:07:34;;;;;;;;;;;31.30;61.20;;;;;;5095670;28;19951;-69
2023/09/02 06:10:00;;;;;;;;;;;31.00;61.60;;;;;;5095710;28;19995;-67
2023/09/02 06:12:27;;;;;;;;;;;30.80;61.80;;;;;;5096368;28;19912;-66
2023/09/02 06:14:53;;;;;;;;;;;30.60;62.50;;;;;;5077217;28;20288;-67
2023/09/02 06:17:21;;;;;;;;;;;30.50;62.50;;;;;;5097231;28;19908;-69
2023/09/02 06:19:47;;;;;;;;;;;30.30;63.00;;;;;;5115727;28;19908;-65
2023/09/02 06:22:14;;;;;;;;;;;30.10;62.80;;;;;;5115990;28;19915;-66
2023/09/02 06:24:41;;;;;;;;;;;29.90;63.40;;;;;;5100802;28;20365;-68
2023/09/02 06:27:07;;;;;;;;;;;29.50;63.70;;;;;;5102253;28;19955;-67
2023/09/02 06:29:34;;;;;;;;;;;29.00;64.40;;;;;;5115751;28;19998;-67
2023/09/02 06:32:01;;;;;;;;;;;29.20;64.60;;;;;;5115566;28;19912;-69
2023/09/02 06:34:31;;;;;;;;;;;29.20;63.80;;;;;;5115621;28;19908;-68
2023/09/02 06:36:57;;;;;;;;;;;28.90;64.80;;;;;;5114192;28;19915;-67
2023/09/02 06:39:24;;;;;;;;;;;28.80;64.40;;;;;;5114711;28;19916;-67
2023/09/02 06:41:50;;;;;;;;;;;28.40;65.10;;;;;;5115603;28;19955;-67
2023/09/02 06:44:17;;;;;;;;;;;27.60;67.30;;;;;;5115424;28;20367;-67
2023/09/02 06:46:44;;;;;;;;;;;27.50;67.10;;;;;;5115223;28;19920;-68
2023/09/02 06:49:10;;;;;;;;;;;27.40;67.30;;;;;;5115638;28;19930;-68
2023/09/02 06:51:37;;;;;;;;;;;27.30;66.70;;;;;;5115509;28;20307;-67
2023/09/02 06:54:04;;;;;;;;;;;26.30;68.40;;;;;;5113626;28;20376;-66
2023/09/02 06:56:30;;;;;;;;;;;25.20;69.70;;;;;;5114984;28;19908;-67
2023/09/02 06:58:57;;;;;;;;;;;23.90;72.80;;;;;;5115072;28;19915;-68
2023/09/02 07:01:24;;;;;;;;;;;22.90;75.30;;;;;;5115316;28;19918;-65
2023/09/02 07:03:51;;;;;;;;;;;21.90;78.20;;;;;;5114549;28;19908;-67
2023/09/02 07:06:19;;;;;;;;;;;21.10;79.90;;;;;;5115046;28;19925;-66
2023/09/02 07:08:46;;;;;;;;;;;20.40;82.30;;;;;;5115020;28;19907;-67
2023/09/02 07:11:13;;;;;;;;;;;19.90;84.00;;;;;;5115293;28;19908;-67
2023/09/02 07:13:40;;;;;;;;;;;19.40;85.20;;;;;;5107987;28;19912;-67
2023/09/02 07:16:07;;;;;;;;;;;19.00;86.90;;;;;;5094371;28;20300;-66
2023/09/02 07:18:34;;;;;;;;;;;18.70;87.90;;;;;;5094432;28;20454;-68
2023/09/02 07:21:04;;;;;;;;;;;18.50;88.90;;;;;;5094654;28;19908;-66
2023/09/02 07:23:32;;;;;;;;;;;18.30;90.20;;;;;;5114680;28;19907;-68
2023/09/02 07:26:04;;;;;;;;;;;18.20;91.40;;;;;;5095787;28;20400;-67
2023/09/02 07:28:31;;;;;;;;;;;18.10;92.80;;;;;;5094144;28;19912;-67
2023/09/02 07:31:00;;;;;;;;;;;18.00;94.00;;;;;;5094151;28;19912;-66
2023/09/02 07:33:27;;;;;;;;;;;17.80;94.80;;;;;;5100623;28;20372;-66
2023/09/02 07:35:56;;;;;;;;;;;17.70;95.60;;;;;;5095962;28;19954;-67
2023/09/02 07:38:23;;;;;;;;;;;17.50;96.60;;;;;;5108125;28;19909;-67
2023/09/02 07:40:50;;;;;;;;;;;17.30;97.50;;;;;;5093949;28;19943;-66
2023/09/02 07:43:16;;;;;;;;;;;17.10;98.60;;;;;;5093844;28;19915;-67
2023/09/02 07:45:44;;;;;;;;;;;17.00;99.40;;;;;;5093823;28;19920;-67
2023/09/02 07:48:11;;;;;;;;;;;16.90;99.90;;;;;;5111448;28;20284;-68
2023/09/02 07:50:37;;;;;;;;;;;16.90;99.90;;;;;;5114026;28;19943;-66
2023/09/02 07:53:04;;;;;;;;;;;16.80;99.90;;;;;;5113941;28;19907;-69
2023/09/02 07:55:30;;;;;;;;;;;16.70;99.90;;;;;;5112322;28;20352;-68
2023/09/02 07:57:59;;;;;;;;;;;16.60;99.90;;;;;;5113689;28;19908;-67
2023/09/02 08:00:26;;;;;;;;;;;16.50;99.90;;;;;;5114079;28;19908;-67
2023/09/02 08:02:53;;;;;;;;;;;16.40;99.90;;;;;;5112887;28;20000;-68
2023/09/02 08:05:19;;;;;;;;;;;16.40;99.90;;;;;;5093421;28;19920;-68
2023/09/02 08:07:46;;;;;;;;;;;16.40;99.90;;;;;;5108624;28;19912;-67
2023/09/02 08:10:13;;;;;;;;;;;16.30;99.90;;;;;;5114055;28;19908;-65
2023/09/02 08:12:39;;;;;;;;;;;16.20;99.90;;;;;;5113804;28;20012;-67
2023/09/02 08:15:06;;;;;;;;;;;16.20;99.90;;;;;;5111501;28;19967;-66
2023/09/02 08:17:40;;;;;;;;;;;16.10;99.90;;;;;;5112496;28;19964;-68
2023/09/02 08:20:08;;;;;;;;;;;16.20;99.90;;;;;;5113725;28;19975;-67
2023/09/02 08:22:36;;;;;;;;;;;16.00;99.90;;;;;;5113632;28;20006;-66
2023/09/02 08:25:03;;;;;;;;;;;16.00;99.90;;;;;;5104101;28;19927;-67
2023/09/02 08:27:30;;;;;;;;;;;15.90;99.90;;;;;;5092673;28;19912;-67
2023/09/02 08:29:57;;;;;;;;;;;15.90;99.90;;;;;;5093209;28;19909;-67
2023/09/02 08:32:23;;;;;;;;;;;15.90;99.90;;;;;;5075085;28;20355;-69
2023/09/02 08:34:50;;;;;;;;;;;15.80;99.90;;;;;;5107800;28;19912;-67
2023/09/02 08:37:17;;;;;;;;;;;15.90;99.90;;;;;;5113162;28;19908;-68
2023/09/02 08:39:43;;;;;;;;;;;15.90;99.90;;;;;;5112972;28;19908;-67
2023/09/02 08:42:11;;;;;;;;;;;15.80;99.90;;;;;;5100421;28;19912;-66
2023/09/02 08:44:38;;;;;;;;;;;15.70;99.90;;;;;;5092754;28;19908;-67
2023/09/02 08:47:05;;;;;;;;;;;15.70;99.90;;;;;;5092712;28;19920;-67
2023/09/02 08:49:36;;;;;;;;;;;15.70;99.90;;;;;;5096402;28;20263;-67
2023/09/02 08:52:03;;;;;;;;;;;15.70;99.90;;;;;;5112781;28;19908;-68
2023/09/02 08:54:29;;;;;;;;;;;15.70;99.90;;;;;;5112928;28;19912;-68
2023/09/02 08:56:57;;;;;;;;;;;15.60;99.90;;;;;;5113167;28;19942;-67
2023/09/02 08:59:26;;;;;;;;;;;15.60;99.90;;;;;;5113197;28;19926;-67
2023/09/02 09:01:53;;;;;;;;;;;15.60;99.90;;;;;;5112974;28;19961;-67
2023/09/02 09:04:20;;;;;;;;;;;15.50;99.90;;;;;;5113082;28;19915;-67
2023/09/02 09:06:47;;;;;;;;;;;15.50;99.90;;;;;;5112916;28;20372;-67
2023/09/02 09:09:15;;;;;;;;;;;15.50;99.90;;;;;;5111179;28;19919;-66
2023/09/02 09:11:43;;;;;;;;;;;15.60;99.90;;;;;;5112982;28;20375;-67
2023/09/02 09:14:11;;;;;;;;;;;15.50;99.90;;;;;;5113039;28;19915;-67
2023/09/02 09:16:39;;;;;;;;;;;15.40;99.90;;;;;;5112608;28;19915;-66
2023/09/02 09:19:06;;;;;;;;;;;15.50;99.90;;;;;;5112920;28;19914;-65
2023/09/02 09:21:33;;;;;;;;;;;15.40;99.90;;;;;;5112913;28;19914;-67
2023/09/02 09:23:59;;;;;;;;;;;15.30;99.90;;;;;;5113132;28;19908;-68
2023/09/02 09:26:26;;;;;;;;;;;15.30;99.90;;;;;;5112653;28;20273;-65
2023/09/02 09:28:54;;;;;;;;;;;15.30;99.90;;;;;;5116429;28;20308;-70
2023/09/02 09:31:21;;;;;;;;;;;15.30;99.90;;;;;;5116985;28;19907;-67
2023/09/02 09:33:51;;;;;;;;;;;15.30;99.90;;;;;;5116818;28;19908;-66
2023/09/02 09:36:20;;;;;;;;;;;15.30;99.90;;;;;;5116474;28;20318;-66
2023/09/02 09:38:47;;;;;;;;;;;15.30;99.90;;;;;;5109831;28;19915;-67
2023/09/02 09:41:13;;;;;;;;;;;15.30;99.90;;;;;;5096832;28;20005;-66
2023/09/02 09:43:40;;;;;;;;;;;15.30;99.90;;;;;;5115843;28;20295;-68
2023/09/02 09:46:07;;;;;;;;;;;15.20;99.90;;;;;;5116213;28;19927;-68
2023/09/02 09:48:42;;;;;;;;;;;15.20;99.90;;;;;;5116511;28;19912;-67
2023/09/02 09:51:21;;;;;;;;;;;15.20;99.90;;;;;;5116336;28;19961;-66
2023/09/02 09:53:48;;;;;;;;;;;15.20;99.90;;;;;;5116089;28;19915;-67
2023/09/02 09:56:15;;;;;;;;;;;15.10;99.90;;;;;;5116110;28;19908;-67
2023/09/02 09:58:41;;;;;;;;;;;15.10;99.90;;;;;;5108436;28;20471;-67
2023/09/02 10:01:11;;;;;;;;;;;15.20;99.90;;;;;;5095849;28;19965;-67
2023/09/02 10:03:38;;;;;;;;;;;15.10;99.90;;;;;;5095930;28;19927;-67
2023/09/02 10:06:05;;;;;;;;;;;15.10;99.90;;;;;;5098774;28;19930;-68
2023/09/02 10:08:48;;;;;;;;;;;15.10;99.90;;;;;;5095379;28;19912;-66
2023/09/02 10:11:20;;;;;;;;;;;15.00;99.90;;;;;;5095998;28;19908;-68
2023/09/02 10:13:47;;;;;;;;;;;15.00;99.90;;;;;;5116231;28;20027;-66
2023/09/02 10:16:14;;;;;;;;;;;14.90;99.90;;;;;;5115788;28;19907;-69
2023/09/02 10:18:42;;;;;;;;;;;15.00;99.90;;;;;;5115933;28;19914;-70
2023/09/02 10:21:10;;;;;;;;;;;15.00;99.90;;;;;;5116024;28;19908;-66
2023/09/02 10:23:37;;;;;;;;;;;15.00;99.90;;;;;;5116024;28;19907;-68
2023/09/02 10:26:03;;;;;;;;;;;15.00;99.90;;;;;;5115790;28;19922;-69
2023/09/02 10:28:40;;;;;;;;;;;15.00;99.90;;;;;;5097278;28;19908;-68
2023/09/02 10:31:12;;;;;;;;;;;15.00;99.90;;;;;;5114728;28;19943;-67
2023/09/02 10:33:52;;;;;;;;;;;15.10;99.90;;;;;;5114341;28;19970;-67
2023/09/02 10:36:21;;;;;;;;;;;15.00;99.90;;;;;;5115488;28;20273;-65
2023/09/02 10:38:48;;;;;;;;;;;15.00;99.90;;;;;;5115139;28;19995;-67
2023/09/02 10:41:16;;;;;;;;;;;15.00;99.90;;;;;;5114751;28;20328;-67
2023/09/02 10:43:44;;;;;;;;;;;15.00;99.90;;;;;;5095146;28;20444;-67
2023/09/02 10:46:11;;;;;;;;;;;14.90;99.90;;;;;;5076749;28;20391;-67
2023/09/02 10:48:38;;;;;;;;;;;14.90;99.90;;;;;;5095096;28;19908;-67
2023/09/02 10:51:06;;;;;;;;;;;14.80;99.90;;;;;;5107459;28;19912;-71
2023/09/02 10:53:50;;;;;;;;;;;14.80;99.90;;;;;;5115415;28;19908;-68
2023/09/02 10:56:32;;;;;;;;;;;14.80;99.90;;;;;;5115145;28;19968;-68
2023/09/02 10:58:59;;;;;;;;;;;14.80;99.90;;;;;;5109925;28;19912;-66
2023/09/02 11:01:28;;;;;;;;;;;14.80;99.90;;;;;;5095061;28;19908;-66
2023/09/02 11:03:55;;;;;;;;;;;14.80;99.90;;;;;;5094923;28;19908;-67
2023/09/02 11:06:22;;;;;;;;;;;14.80;99.90;;;;;;5094720;28;19959;-72
2023/09/02 11:08:50;;;;;;;;;;;14.90;99.90;;;;;;5076294;28;20373;-69
2023/09/02 11:11:20;;;;;;;;;;;14.80;99.90;;;;;;5094829;28;19915;-66
2023/09/02 11:14:05;;;;;;;;;;;14.80;99.90;;;;;;5104604;28;19935;-65
2023/09/02 11:16:32;;;;;;;;;;;14.90;99.90;;;;;;5100366;28;19912;-66
2023/09/02 11:19:06;;;;;;;;;;;14.90;99.90;;;;;;5076446;28;20369;-67
2023/09/02 11:21:43;;;;;;;;;;;15.00;99.90;;;;;;5094520;28;19923;-69
2023/09/02 11:24:15;;;;;;;;;;;15.10;99.90;;;;;;5094563;28;19908;-66
2023/09/02 11:26:57;;;;;;;;;;;15.20;99.90;;;;;;5098403;28;19988;-68
2023/09/02 11:29:23;;;;;;;;;;;15.20;99.90;;;;;;5094201;28;20006;-70
2023/09/02 11:32:00;;;;;;;;;;;15.30;99.90;;;;;;5094170;28;19912;-68
2023/09/02 11:34:27;;;;;;;;;;;15.40;99.90;;;;;;5076003;28;19933;-68
2023/09/02 11:36:54;;;;;;;;;;;15.40;99.90;;;;;;5094171;28;20048;-68
2023/09/02 11:39:28;;;;;;;;;;;15.40;99.90;;;;;;5094222;28;19908;-66
2023/09/02 11:42:11;;;;;;;;;;;15.50;99.90;;;;;;5098806;28;19912;-68
2023/09/02 11:44:37;;;;;;;;;;;15.50;99.90;;;;;;5114123;28;19908;-65
2023/09/02 11:47:05;;;;;;;;;;;15.40;99.90;;;;;;5114200;28;19924;-67
2023/09/02 11:49:31;;;;;;;;;;;15.40;99.90;;;;;;5114523;28;19922;-66
2023/09/02 11:51:58;;;;;;;;;;;15.40;99.90;;;;;;5113263;28;19918;-67
2023/09/02 11:54:25;;;;;;;;;;;15.40;99.90;;;;;;5101517;28;19916;-66
2023/09/02 11:56:57;;;;;;;;;;;15.30;99.90;;;;;;5093352;28;19908;-66
2023/09/02 11:59:24;;;;;;;;;;;15.30;99.90;;;;;;5093531;28;20246;-68
2023/09/02 12:02:07;;;;;;;;;;;15.30;99.90;;;;;;5093551;28;20006;-67
2023/09/02 12:04:37;;;;;;;;;;;15.20;99.90;;;;;;5093615;28;19912;-66
2023/09/02 12:07:07;;;;;;;;;;;15.20;99.90;;;;;;5093563;28;20011;-68
2023/09/02 12:09:37;;;;;;;;;;;15.20;99.90;;;;;;5093792;28;19907;-68
2023/09/02 12:12:04;;;;;;;;;;;15.20;99.90;;;;;;5103337;28;19923;-69
2023/09/02 12:14:31;;;;;;;;;;;15.10;99.90;;;;;;5114055;28;19947;-67
2023/09/02 12:17:00;;;;;;;;;;;15.10;99.90;;;;;;5113773;28;19926;-67
2023/09/02 12:19:27;;;;;;;;;;;15.10;99.90;;;;;;5113757;28;19915;-67
2023/09/02 12:21:54;;;;;;;;;;;15.00;99.90;;;;;;5100092;28;19916;-66
2023/09/02 12:24:21;;;;;;;;;;;15.10;99.90;;;;;;5093107;28;19912;-69
2023/09/02 12:26:49;;;;;;;;;;;15.10;99.90;;;;;;5093273;28;19916;-67
2023/09/02 12:29:22;;;;;;;;;;;15.00;99.90;;;;;;5093305;28;20365;-66
2023/09/02 12:31:56;;;;;;;;;;;15.00;99.90;;;;;;5101854;28;20010;-67
2023/09/02 12:34:24;;;;;;;;;;;15.00;99.90;;;;;;5113671;28;20364;-66
2023/09/02 12:36:50;;;;;;;;;;;15.00;99.90;;;;;;5113306;28;19908;-66
2023/09/02 12:39:28;;;;;;;;;;;15.00;99.90;;;;;;5113604;28;20363;-66
2023/09/02 12:41:55;;;;;;;;;;;15.00;99.90;;;;;;5111731;28;19912;-66
2023/09/02 12:44:22;;;;;;;;;;;14.90;99.90;;;;;;5112940;28;19965;-66
2023/09/02 12:46:50;;;;;;;;;;;14.90;99.90;;;;;;5094544;28;19920;-67
2023/09/02 12:49:17;;;;;;;;;;;14.80;99.90;;;;;;5099347;28;19912;-67
2023/09/02 12:51:44;;;;;;;;;;;14.80;99.90;;;;;;5092891;28;20006;-66
2023/09/02 12:54:14;;;;;;;;;;;14.80;99.90;;;;;;5093019;28;19931;-66
2023/09/02 12:56:41;;;;;;;;;;;14.70;99.90;;;;;;5092847;28;19904;-67
2023/09/02 12:59:08;;;;;;;;;;;14.70;99.90;;;;;;5092812;28;20385;-72
2023/09/02 13:01:36;;;;;;;;;;;14.70;99.90;;;;;;5098945;28;19991;-67
2023/09/02 13:04:03;;;;;;;;;;;14.70;99.90;;;;;;5117339;28;19916;-66
2023/09/02 13:06:30;;;;;;;;;;;14.70;99.90;;;;;;5117237;28;19919;-68
2023/09/02 13:08:57;;;;;;;;;;;14.70;99.90;;;;;;5104036;28;19912;-66
2023/09/02 13:11:26;;;;;;;;;;;14.70;99.90;;;;;;5113298;28;19957;-67
2023/09/02 13:13:54;;;;;;;;;;;14.60;99.90;;;;;;5117073;28;19911;-68
2023/09/02 13:16:20;;;;;;;;;;;14.70;99.90;;;;;;5105394;28;19912;-66
2023/09/02 13:18:47;;;;;;;;;;;14.60;99.90;;;;;;5096772;28;19908;-66
2023/09/02 13:21:14;;;;;;;;;;;14.60;99.90;;;;;;5096630;28;19908;-68
2023/09/02 13:23:40;;;;;;;;;;;14.50;99.90;;;;;;5096637;28;20011;-68
2023/09/02 13:26:10;;;;;;;;;;;14.60;99.90;;;;;;5096680;28;19916;-66
2023/09/02 13:28:37;;;;;;;;;;;14.50;99.90;;;;;;5108479;28;19920;-66
2023/09/02 13:31:03;;;;;;;;;;;14.50;99.90;;;;;;5116915;28;19912;-67
2023/09/02 13:33:31;;;;;;;;;;;14.50;99.90;;;;;;5117075;28;19908;-66
2023/09/02 13:35:59;;;;;;;;;;;14.40;99.90;;;;;;5116980;28;19911;-66
2023/09/02 13:38:25;;;;;;;;;;;14.40;99.90;;;;;;5116870;28;19911;-67
2023/09/02 13:40:52;;;;;;;;;;;14.40;99.90;;;;;;5104043;28;20497;-66
2023/09/02 13:43:20;;;;;;;;;;;14.30;99.90;;;;;;5104831;28;19916;-66
2023/09/02 13:45:47;;;;;;;;;;;14.30;99.90;;;;;;5116761;28;19981;-67
2023/09/02 13:48:14;;;;;;;;;;;14.20;99.90;;;;;;5105369;28;19916;-66
2023/09/02 13:50:42;;;;;;;;;;;14.30;99.90;;;;;;5096975;28;19929;-68
2023/09/02 13:53:10;;;;;;;;;;;14.20;99.90;;;;;;5111459;28;19934;-67
2023/09/02 13:55:40;;;;;;;;;;;14.20;99.90;;;;;;5108197;28;20257;-73
2023/09/02 13:58:09;;;;;;;;;;;14.20;99.90;;;;;;5097796;28;20406;-70
2023/09/02 14:00:40;;;;;;;;;;;14.10;99.90;;;;;;5116272;28;19908;-67
2023/09/02 14:03:28;;;;;;;;;;;14.00;99.90;;;;;;5115717;28;19912;-67
2023/09/02 14:05:55;;;;;;;;;;;14.10;99.90;;;;;;5108754;28;19923;-66
2023/09/02 14:08:35;;;;;;;;;;;14.10;99.90;;;;;;5096057;28;20379;-71
2023/09/02 14:11:03;;;;;;;;;;;14.00;99.90;;;;;;5114931;28;19931;-68
2023/09/02 14:13:51;;;;;;;;;;;14.00;99.90;;;;;;5110091;28;19918;-67
2023/09/02 14:16:17;;;;;;;;;;;14.00;99.90;;;;;;5115590;28;19907;-66
2023/09/02 14:18:44;;;;;;;;;;;14.00;99.90;;;;;;5115828;28;19934;-68
2023/09/02 14:21:11;;;;;;;;;;;13.90;99.90;;;;;;5115887;28;19908;-66